createdAt,value
2023-05-08T00:03:09.136Z,216675.00
2023-05-08T00:09:11.615Z,216719.00
2023-05-08T00:15:13.795Z,216788.00
2023-05-08T00:21:16.090Z,216816.00
2023-05-08T00:27:18.294Z,216802.00
2023-05-08T00:33:20.518Z,216824.00
2023-05-08T00:39:22.613Z,216810.00
2023-05-08T00:45:25.461Z,216703.00
2023-05-08T00:51:28.257Z,216669.00
2023-05-08T00:57:34.946Z,216543.00
2023-05-08T01:03:38.152Z,216529.00
2023-05-08T01:09:41.034Z,216543.00
2023-05-08T01:15:51.113Z,216464.00
2023-05-08T01:22:00.560Z,216392.00
2023-05-08T01:28:14.401Z,216260.00
2023-05-08T01:34:24.796Z,216240.00
2023-05-08T01:41:01.045Z,216288.00
2023-05-08T01:47:07.516Z,216400.00
2023-05-08T01:53:20.356Z,216422.00
2023-05-08T01:59:24.359Z,216420.00
2023-05-08T02:05:28.161Z,216450.00
2023-05-08T02:11:32.745Z,216450.00
2023-05-08T02:17:38.672Z,216499.00
2023-05-08T02:23:43.390Z,216521.00
2023-05-08T02:29:45.682Z,216499.00
2023-05-08T02:35:53.547Z,216485.00
2023-05-08T02:41:55.894Z,216392.00
2023-05-08T02:48:22.824Z,216268.00
2023-05-08T02:54:44.672Z,216224.00
2023-05-08T03:01:01.119Z,216210.00
2023-05-08T03:07:04.895Z,216268.00
2023-05-08T03:13:09.883Z,216282.00
2023-05-08T03:19:26.856Z,216326.00
2023-05-08T03:25:30.791Z,216260.00
2023-05-08T03:31:34.649Z,216260.00
2023-05-08T03:37:38.740Z,216224.00
2023-05-08T03:43:42.107Z,216191.00
2023-05-08T03:49:50.185Z,216288.00
2023-05-08T03:55:53.338Z,216288.00
2023-05-08T04:02:04.808Z,216163.00
2023-05-08T04:08:16.152Z,216218.00
2023-05-08T04:14:21.861Z,216056.00
2023-05-08T04:20:27.907Z,216015.00
2023-05-08T04:26:32.156Z,216064.00
2023-05-08T04:32:37.599Z,216133.00
2023-05-08T04:38:42.030Z,216210.00
2023-05-08T04:44:45.983Z,216268.00
2023-05-08T04:50:48.550Z,216353.00
2023-05-08T04:56:51.110Z,216501.00
2023-05-08T05:02:54.006Z,216458.00
2023-05-08T05:08:56.631Z,216332.00
2023-05-08T05:14:59.188Z,216302.00
2023-05-08T05:21:04.717Z,216318.00
2023-05-08T05:27:07.338Z,216304.00
2023-05-08T05:33:10.227Z,216400.00
2023-05-08T05:39:13.450Z,216626.00
2023-05-08T05:45:16.447Z,216840.00
2023-05-08T05:51:18.995Z,217115.00
2023-05-08T05:57:21.476Z,217425.00
2023-05-08T06:03:24.190Z,217582.00
2023-05-08T06:09:26.603Z,217951.00
2023-05-08T06:15:29.070Z,218431.00
2023-05-08T06:21:31.722Z,218009.00
2023-05-08T06:27:35.156Z,220944.00
2023-05-08T06:33:37.753Z,220849.00
2023-05-08T06:39:40.218Z,220908.00
2023-05-08T06:45:44.112Z,219392.00
2023-05-08T06:51:46.648Z,218579.00
2023-05-08T06:57:49.011Z,218565.00
2023-05-08T07:03:51.511Z,218488.00
2023-05-08T07:09:53.864Z,217959.00
2023-05-08T07:15:56.522Z,217625.00
2023-05-08T07:21:58.859Z,217447.00
2023-05-08T07:28:01.624Z,217447.00
2023-05-08T07:34:04.245Z,217538.00
2023-05-08T07:40:07.133Z,217340.00
2023-05-08T07:46:09.816Z,217176.00
2023-05-08T07:52:12.652Z,217219.00
2023-05-08T07:58:15.170Z,217271.00
2023-05-08T08:04:20.751Z,217022.00
2023-05-08T08:10:23.251Z,217071.00
2023-05-08T08:16:26.063Z,217291.00
2023-05-08T08:22:28.522Z,217532.00
2023-05-08T08:28:30.848Z,217781.00
2023-05-08T08:34:36.589Z,217716.00
2023-05-08T08:40:42.639Z,217716.00
2023-05-08T08:46:50.961Z,217767.00
2023-05-08T08:53:01.736Z,217680.00
2023-05-08T08:59:05.156Z,217354.00
2023-05-08T09:05:08.074Z,217113.00
2023-05-08T09:11:10.665Z,216840.00
2023-05-08T09:17:12.913Z,216613.00
2023-05-08T09:23:17.679Z,216549.00
2023-05-08T09:29:23.067Z,216400.00
2023-05-08T09:35:36.243Z,216367.00
2023-05-08T09:41:38.637Z,216501.00
2023-05-08T09:47:48.650Z,216549.00
2023-05-08T09:53:53.740Z,216339.00
2023-05-08T10:00:06.739Z,216191.00
2023-05-08T10:06:14.095Z,216191.00
2023-05-08T10:12:16.536Z,216139.00
2023-05-08T10:18:20.930Z,216191.00
2023-05-08T10:24:34.078Z,216191.00
2023-05-08T10:30:40.397Z,216177.00
2023-05-08T10:36:42.931Z,216149.00
2023-05-08T10:42:45.640Z,216183.00
2023-05-08T10:49:00.829Z,216183.00
2023-05-08T10:55:25.051Z,216210.00
2023-05-08T11:01:27.853Z,216086.00
2023-05-08T11:07:58.794Z,216037.00
2023-05-08T11:14:13.667Z,215979.00
2023-05-08T11:20:16.606Z,215945.00
2023-05-08T11:26:19.128Z,215783.00
2023-05-08T11:32:21.506Z,215678.00
2023-05-08T11:38:38.764Z,215656.00
2023-05-08T11:44:41.672Z,215623.00
2023-05-08T11:50:44.778Z,215650.00
2023-05-08T11:56:48.641Z,215656.00
2023-05-08T12:02:51.312Z,215678.00
2023-05-08T12:08:53.946Z,215623.00
2023-05-08T12:14:56.360Z,215568.00
2023-05-08T12:21:00.583Z,215560.00
2023-05-08T12:27:04.254Z,215642.00
2023-05-08T12:33:07.643Z,215607.00
2023-05-08T12:39:14.839Z,215684.00
2023-05-08T12:45:24.910Z,215560.00
2023-05-08T12:51:31.851Z,215518.00
2023-05-08T12:57:37.536Z,215582.00
2023-05-08T13:03:41.418Z,215656.00
2023-05-08T13:10:05.121Z,215582.00
2023-05-08T13:16:08.153Z,215588.00
2023-05-08T13:22:10.542Z,215538.00
2023-05-08T13:28:13.349Z,215405.00
2023-05-08T13:34:15.802Z,215391.00
2023-05-08T13:40:18.843Z,215383.00
2023-05-08T13:46:21.483Z,215427.00
2023-05-08T13:52:23.796Z,215496.00
2023-05-08T13:58:26.231Z,215477.00
2023-05-08T14:04:28.548Z,215463.00
2023-05-08T14:10:30.769Z,215413.00
2023-05-08T14:16:33.522Z,215371.00
2023-05-08T14:22:35.970Z,215337.00
2023-05-08T14:28:38.338Z,215281.00
2023-05-08T14:34:40.649Z,215273.00
2023-05-08T14:40:42.890Z,215289.00
2023-05-08T14:46:45.349Z,215349.00
2023-05-08T14:52:47.899Z,215371.00
2023-05-08T14:58:54.640Z,215391.00
2023-05-08T15:04:57.072Z,215413.00
2023-05-08T15:11:00.036Z,215391.00
2023-05-08T15:17:03.048Z,215405.00
2023-05-08T15:23:05.399Z,215329.00
2023-05-08T15:29:07.709Z,215369.00
2023-05-08T15:35:10.535Z,215295.00
2023-05-08T15:41:15.100Z,215253.00
2023-05-08T15:47:20.230Z,215217.00
2023-05-08T15:53:22.796Z,215196.00
2023-05-08T15:59:25.582Z,215120.00
2023-05-08T16:05:27.809Z,215112.00
2023-05-08T16:11:33.144Z,215146.00
2023-05-08T16:17:35.553Z,215052.00
2023-05-08T16:23:37.740Z,215044.00
2023-05-08T16:29:40.006Z,215002.00
2023-05-08T16:35:42.601Z,214940.00
2023-05-08T16:41:45.280Z,214958.00
2023-05-08T16:47:48.249Z,214919.00
2023-05-08T16:53:50.651Z,214841.00
2023-05-08T16:59:53.092Z,214849.00
2023-05-08T17:05:55.270Z,214814.00
2023-05-08T17:11:59.274Z,214827.00
2023-05-08T17:18:01.493Z,214745.00
2023-05-08T17:24:03.875Z,214737.00
2023-05-08T17:30:12.561Z,214717.00
2023-05-08T17:36:15.114Z,214731.00
2023-05-08T17:42:17.739Z,214648.00
2023-05-08T17:48:19.999Z,214606.00
2023-05-08T17:54:22.199Z,214537.00
2023-05-08T18:00:24.850Z,214460.00
2023-05-08T18:06:27.251Z,214432.00
2023-05-08T18:12:32.311Z,214376.00
2023-05-08T18:18:34.534Z,214341.00
2023-05-08T18:24:37.007Z,214321.00
2023-05-08T18:30:40.530Z,214321.00
2023-05-08T18:36:42.877Z,214307.00
2023-05-08T18:42:49.339Z,214313.00
2023-05-08T18:48:51.850Z,214307.00
2023-05-08T18:54:54.450Z,214280.00
2023-05-08T19:00:57.736Z,214274.00
2023-05-08T19:07:01.221Z,214266.00
2023-05-08T19:13:05.160Z,214296.00
2023-05-08T19:19:09.091Z,214244.00
2023-05-08T19:25:13.070Z,214225.00
2023-05-08T19:31:15.310Z,214211.00
2023-05-08T19:37:17.769Z,214205.00
2023-05-08T19:43:20.078Z,214211.00
2023-05-08T19:49:24.890Z,214205.00
2023-05-08T19:55:27.279Z,214238.00
2023-05-08T20:01:29.393Z,214197.00
2023-05-08T20:07:31.910Z,214099.00
2023-05-08T20:13:34.085Z,214033.00
2023-05-08T20:19:36.353Z,213969.00
2023-05-08T20:25:38.719Z,213934.00
2023-05-08T20:31:41.536Z,213894.00
2023-05-08T20:37:45.171Z,213872.00
2023-05-08T20:43:47.400Z,213920.00
2023-05-08T20:49:49.962Z,213928.00
2023-05-08T20:55:53.928Z,213864.00
2023-05-08T21:01:56.242Z,213894.00
2023-05-08T21:08:02.619Z,213894.00
2023-05-08T21:14:05.068Z,213852.00
2023-05-08T21:20:08.442Z,213864.00
2023-05-08T21:26:10.598Z,213892.00
2023-05-08T21:32:12.688Z,213858.00
2023-05-08T21:38:14.849Z,213816.00
2023-05-08T21:44:17.155Z,213778.00
2023-05-08T21:50:19.669Z,213748.00
2023-05-08T21:56:22.123Z,213762.00
2023-05-08T22:02:24.505Z,213734.00
2023-05-08T22:08:27.148Z,213728.00
2023-05-08T22:14:29.672Z,213756.00
2023-05-08T22:20:32.011Z,213742.00
2023-05-08T22:26:34.341Z,213748.00
2023-05-08T22:32:36.990Z,213714.00
2023-05-08T22:38:41.094Z,213686.00
2023-05-08T22:44:44.139Z,213714.00
2023-05-08T22:50:47.492Z,213742.00
2023-05-08T22:56:49.738Z,213742.00
2023-05-08T23:02:52.037Z,213748.00
2023-05-08T23:08:54.338Z,213720.00
2023-05-08T23:14:56.667Z,213694.00
2023-05-08T23:21:04.262Z,213686.00
2023-05-08T23:27:06.775Z,213734.00
2023-05-08T23:33:09.532Z,213714.00
2023-05-08T23:39:11.923Z,213686.00
2023-05-08T23:45:14.308Z,213673.00
2023-05-08T23:51:16.942Z,213667.00
2023-05-08T23:57:19.244Z,213667.00
